sensor_id;sensor_type;location;lat;lon;timestamp;temperature;humidity
59857;DHT22;45733;52.668;6.860;2023-04-15T00:01:08;7.20;99.90
59857;DHT22;45733;52.668;6.860;2023-04-15T00:03:34;7.30;99.90
59857;DHT22;45733;52.668;6.860;2023-04-15T00:05:59;7.30;99.90
59857;DHT22;45733;52.668;6.860;2023-04-15T00:08:26;7.40;99.90
59857;DHT22;45733;52.668;6.860;2023-04-15T00:10:51;7.30;99.90
59857;DHT22;45733;52.668;6.860;2023-04-15T00:13:17;7.20;99.90
59857;DHT22;45733;52.668;6.860;2023-04-15T00:15:42;7.30;99.90
59857;DHT22;45733;52.668;6.860;2023-04-15T00:18:09;7.30;99.90
59857;DHT22;45733;52.668;6.860;2023-04-15T00:20:34;7.20;99.90
59857;DHT22;45733;52.668;6.860;2023-04-15T00:23:01;7.10;99.90
59857;DHT22;45733;52.668;6.860;2023-04-15T00:25:28;7.10;99.90
59857;DHT22;45733;52.668;6.860;2023-04-15T00:27:53;7.10;99.90
59857;DHT22;45733;52.668;6.860;2023-04-15T00:30:19;7.10;99.90
59857;DHT22;45733;52.668;6.860;2023-04-15T00:32:44;7.10;99.90
59857;DHT22;45733;52.668;6.860;2023-04-15T00:35:11;7.00;99.90
59857;DHT22;45733;52.668;6.860;2023-04-15T00:37:36;6.90;99.90
59857;DHT22;45733;52.668;6.860;2023-04-15T00:40:02;6.90;99.90
59857;DHT22;45733;52.668;6.860;2023-04-15T00:42:30;6.80;99.90
59857;DHT22;45733;52.668;6.860;2023-04-15T00:44:56;6.90;99.90
59857;DHT22;45733;52.668;6.860;2023-04-15T00:47:21;6.80;99.90
59857;DHT22;45733;52.668;6.860;2023-04-15T00:49:47;6.90;99.90
59857;DHT22;45733;52.668;6.860;2023-04-15T00:52:13;6.80;99.90
59857;DHT22;45733;52.668;6.860;2023-04-15T00:54:39;6.80;99.90
59857;DHT22;45733;52.668;6.860;2023-04-15T00:57:05;6.80;99.90
59857;DHT22;45733;52.668;6.860;2023-04-15T00:59:32;6.80;99.90
59857;DHT22;45733;52.668;6.860;2023-04-15T01:01:58;6.80;99.90
59857;DHT22;45733;52.668;6.860;2023-04-15T01:04:24;6.80;99.90
59857;DHT22;45733;52.668;6.860;2023-04-15T01:06:49;6.90;99.90
59857;DHT22;45733;52.668;6.860;2023-04-15T01:09:15;6.90;99.90
59857;DHT22;45733;52.668;6.860;2023-04-15T01:11:41;6.80;99.90
59857;DHT22;45733;52.668;6.860;2023-04-15T01:14:07;6.80;99.90
59857;DHT22;45733;52.668;6.860;2023-04-15T01:16:33;6.70;99.90
59857;DHT22;45733;52.668;6.860;2023-04-15T01:18:59;6.70;99.90
59857;DHT22;45733;52.668;6.860;2023-04-15T01:21:24;6.60;99.90
59857;DHT22;45733;52.668;6.860;2023-04-15T01:23:51;6.50;99.90
59857;DHT22;45733;52.668;6.860;2023-04-15T01:26:17;6.30;99.90
59857;DHT22;45733;52.668;6.860;2023-04-15T01:28:43;6.30;99.90
59857;DHT22;45733;52.668;6.860;2023-04-15T01:31:10;6.20;99.90
59857;DHT22;45733;52.668;6.860;2023-04-15T01:33:37;6.20;99.90
59857;DHT22;45733;52.668;6.860;2023-04-15T01:36:03;6.20;99.90
59857;DHT22;45733;52.668;6.860;2023-04-15T01:38:29;6.10;99.90
59857;DHT22;45733;52.668;6.860;2023-04-15T01:40:55;6.10;99.90
59857;DHT22;45733;52.668;6.860;2023-04-15T01:43:21;6.00;99.90
59857;DHT22;45733;52.668;6.860;2023-04-15T01:45:47;6.10;99.90
59857;DHT22;45733;52.668;6.860;2023-04-15T01:48:12;6.10;99.90
59857;DHT22;45733;52.668;6.860;2023-04-15T01:50:38;6.10;99.90
59857;DHT22;45733;52.668;6.860;2023-04-15T01:53:04;6.10;99.90
59857;DHT22;45733;52.668;6.860;2023-04-15T01:55:29;6.10;99.90
59857;DHT22;45733;52.668;6.860;2023-04-15T01:57:55;6.00;99.90
59857;DHT22;45733;52.668;6.860;2023-04-15T02:00:21;6.00;99.90
59857;DHT22;45733;52.668;6.860;2023-04-15T02:02:47;6.00;99.90
59857;DHT22;45733;52.668;6.860;2023-04-15T02:05:13;5.90;99.90
59857;DHT22;45733;52.668;6.860;2023-04-15T02:07:38;6.00;99.90
59857;DHT22;45733;52.668;6.860;2023-04-15T02:10:04;6.00;99.90
59857;DHT22;45733;52.668;6.860;2023-04-15T02:12:30;5.90;99.90
59857;DHT22;45733;52.668;6.860;2023-04-15T02:14:55;5.80;99.90
59857;DHT22;45733;52.668;6.860;2023-04-15T02:17:21;5.80;99.90
59857;DHT22;45733;52.668;6.860;2023-04-15T02:19:47;5.80;99.90
59857;DHT22;45733;52.668;6.860;2023-04-15T02:22:12;5.70;99.90
59857;DHT22;45733;52.668;6.860;2023-04-15T02:24:42;5.70;99.90
59857;DHT22;45733;52.668;6.860;2023-04-15T02:27:08;5.70;99.90
59857;DHT22;45733;52.668;6.860;2023-04-15T02:29:34;5.70;99.90
59857;DHT22;45733;52.668;6.860;2023-04-15T02:31:59;5.70;99.90
59857;DHT22;45733;52.668;6.860;2023-04-15T02:34:25;5.60;99.90
59857;DHT22;45733;52.668;6.860;2023-04-15T02:36:51;5.60;99.90
59857;DHT22;45733;52.668;6.860;2023-04-15T02:39:21;5.60;99.90
59857;DHT22;45733;52.668;6.860;2023-04-15T02:41:47;5.50;99.90
59857;DHT22;45733;52.668;6.860;2023-04-15T02:44:16;5.50;99.90
59857;DHT22;45733;52.668;6.860;2023-04-15T02:46:44;5.40;99.90
59857;DHT22;45733;52.668;6.860;2023-04-15T02:49:15;5.40;99.90
59857;DHT22;45733;52.668;6.860;2023-04-15T02:51:40;5.40;99.90
59857;DHT22;45733;52.668;6.860;2023-04-15T02:54:06;5.40;99.90
59857;DHT22;45733;52.668;6.860;2023-04-15T02:56:33;5.40;99.90
59857;DHT22;45733;52.668;6.860;2023-04-15T02:58:58;5.30;99.90
59857;DHT22;45733;52.668;6.860;2023-04-15T03:01:24;5.30;99.90
59857;DHT22;45733;52.668;6.860;2023-04-15T03:03:50;5.30;99.90
59857;DHT22;45733;52.668;6.860;2023-04-15T03:06:16;5.30;99.90
59857;DHT22;45733;52.668;6.860;2023-04-15T03:08:41;5.30;99.90
59857;DHT22;45733;52.668;6.860;2023-04-15T03:11:07;5.20;99.90
59857;DHT22;45733;52.668;6.860;2023-04-15T03:13:32;5.30;99.90
59857;DHT22;45733;52.668;6.860;2023-04-15T03:15:58;5.30;99.90
59857;DHT22;45733;52.668;6.860;2023-04-15T03:18:24;5.20;99.90
59857;DHT22;45733;52.668;6.860;2023-04-15T03:20:49;5.10;99.90
59857;DHT22;45733;52.668;6.860;2023-04-15T03:23:15;5.00;99.90
59857;DHT22;45733;52.668;6.860;2023-04-15T03:25:41;5.00;99.90
59857;DHT22;45733;52.668;6.860;2023-04-15T03:28:06;5.00;99.90
59857;DHT22;45733;52.668;6.860;2023-04-15T03:30:32;5.00;99.90
59857;DHT22;45733;52.668;6.860;2023-04-15T03:32:57;4.90;99.90
59857;DHT22;45733;52.668;6.860;2023-04-15T03:35:23;5.00;99.90
59857;DHT22;45733;52.668;6.860;2023-04-15T03:37:49;4.90;99.90
59857;DHT22;45733;52.668;6.860;2023-04-15T03:40:15;4.80;99.90
59857;DHT22;45733;52.668;6.860;2023-04-15T03:42:40;4.80;99.90
59857;DHT22;45733;52.668;6.860;2023-04-15T03:45:06;4.80;99.90
59857;DHT22;45733;52.668;6.860;2023-04-15T03:47:32;4.70;99.90
59857;DHT22;45733;52.668;6.860;2023-04-15T03:49:57;4.60;99.90
59857;DHT22;45733;52.668;6.860;2023-04-15T03:52:23;4.60;99.90
59857;DHT22;45733;52.668;6.860;2023-04-15T03:54:49;4.60;99.90
59857;DHT22;45733;52.668;6.860;2023-04-15T03:57:14;4.60;99.90
59857;DHT22;45733;52.668;6.860;2023-04-15T03:59:40;4.50;99.90
59857;DHT22;45733;52.668;6.860;2023-04-15T04:02:05;4.50;99.90
59857;DHT22;45733;52.668;6.860;2023-04-15T04:04:31;4.50;99.90
59857;DHT22;45733;52.668;6.860;2023-04-15T04:06:56;4.50;99.90
59857;DHT22;45733;52.668;6.860;2023-04-15T04:09:22;4.40;99.90
59857;DHT22;45733;52.668;6.860;2023-04-15T04:11:47;4.40;99.90
59857;DHT22;45733;52.668;6.860;2023-04-15T04:14:13;4.40;99.90
59857;DHT22;45733;52.668;6.860;2023-04-15T04:16:38;4.30;99.90
59857;DHT22;45733;52.668;6.860;2023-04-15T04:19:04;4.30;99.90
59857;DHT22;45733;52.668;6.860;2023-04-15T04:21:30;4.40;99.90
59857;DHT22;45733;52.668;6.860;2023-04-15T04:23:58;4.30;99.90
59857;DHT22;45733;52.668;6.860;2023-04-15T04:26:24;4.30;99.90
59857;DHT22;45733;52.668;6.860;2023-04-15T04:28:49;4.30;99.90
59857;DHT22;45733;52.668;6.860;2023-04-15T04:31:15;4.30;99.90
59857;DHT22;45733;52.668;6.860;2023-04-15T04:33:41;4.30;99.90
59857;DHT22;45733;52.668;6.860;2023-04-15T04:36:06;4.30;99.90
59857;DHT22;45733;52.668;6.860;2023-04-15T04:38:32;4.30;99.90
59857;DHT22;45733;52.668;6.860;2023-04-15T04:40:57;4.20;99.90
59857;DHT22;45733;52.668;6.860;2023-04-15T04:43:23;4.30;99.90
59857;DHT22;45733;52.668;6.860;2023-04-15T04:45:49;4.20;99.90
59857;DHT22;45733;52.668;6.860;2023-04-15T04:48:14;4.30;99.90
59857;DHT22;45733;52.668;6.860;2023-04-15T04:50:41;4.30;99.90
59857;DHT22;45733;52.668;6.860;2023-04-15T04:53:06;4.20;99.90
59857;DHT22;45733;52.668;6.860;2023-04-15T04:55:32;4.30;99.90
59857;DHT22;45733;52.668;6.860;2023-04-15T04:58:01;4.30;99.90
59857;DHT22;45733;52.668;6.860;2023-04-15T05:00:27;4.40;99.90
59857;DHT22;45733;52.668;6.860;2023-04-15T05:02:52;4.40;99.90
59857;DHT22;45733;52.668;6.860;2023-04-15T05:05:18;4.40;99.90
59857;DHT22;45733;52.668;6.860;2023-04-15T05:07:43;4.40;99.90
59857;DHT22;45733;52.668;6.860;2023-04-15T05:10:09;4.50;99.90
59857;DHT22;45733;52.668;6.860;2023-04-15T05:12:35;4.50;99.90
59857;DHT22;45733;52.668;6.860;2023-04-15T05:15:01;4.50;99.90
59857;DHT22;45733;52.668;6.860;2023-04-15T05:17:27;4.50;99.90
59857;DHT22;45733;52.668;6.860;2023-04-15T05:19:55;4.50;99.90
59857;DHT22;45733;52.668;6.860;2023-04-15T05:22:20;4.50;99.90
59857;DHT22;45733;52.668;6.860;2023-04-15T05:24:46;4.60;99.90
59857;DHT22;45733;52.668;6.860;2023-04-15T05:27:12;4.60;99.90
59857;DHT22;45733;52.668;6.860;2023-04-15T05:29:37;4.60;99.90
59857;DHT22;45733;52.668;6.860;2023-04-15T05:32:03;4.70;99.90
59857;DHT22;45733;52.668;6.860;2023-04-15T05:34:29;4.80;99.90
59857;DHT22;45733;52.668;6.860;2023-04-15T05:36:54;4.80;99.90
59857;DHT22;45733;52.668;6.860;2023-04-15T05:39:20;4.80;99.90
59857;DHT22;45733;52.668;6.860;2023-04-15T05:41:46;4.90;99.90
59857;DHT22;45733;52.668;6.860;2023-04-15T05:44:12;4.90;99.90
59857;DHT22;45733;52.668;6.860;2023-04-15T05:46:37;4.90;99.90
59857;DHT22;45733;52.668;6.860;2023-04-15T05:49:03;5.10;99.90
59857;DHT22;45733;52.668;6.860;2023-04-15T05:51:28;5.20;99.90
59857;DHT22;45733;52.668;6.860;2023-04-15T05:53:54;5.30;99.90
59857;DHT22;45733;52.668;6.860;2023-04-15T05:56:20;5.40;99.90
59857;DHT22;45733;52.668;6.860;2023-04-15T05:58:46;5.50;99.90
59857;DHT22;45733;52.668;6.860;2023-04-15T06:01:11;5.60;99.90
59857;DHT22;45733;52.668;6.860;2023-04-15T06:03:37;5.60;99.90
59857;DHT22;45733;52.668;6.860;2023-04-15T06:06:03;5.70;99.90
59857;DHT22;45733;52.668;6.860;2023-04-15T06:08:28;5.90;99.90
59857;DHT22;45733;52.668;6.860;2023-04-15T06:10:54;5.90;99.90
59857;DHT22;45733;52.668;6.860;2023-04-15T06:13:21;6.20;99.90
59857;DHT22;45733;52.668;6.860;2023-04-15T06:15:46;6.30;99.90
59857;DHT22;45733;52.668;6.860;2023-04-15T06:18:12;6.40;99.90
59857;DHT22;45733;52.668;6.860;2023-04-15T06:20:38;6.50;99.90
59857;DHT22;45733;52.668;6.860;2023-04-15T06:23:04;6.60;99.90
59857;DHT22;45733;52.668;6.860;2023-04-15T06:25:29;6.70;99.90
59857;DHT22;45733;52.668;6.860;2023-04-15T06:27:55;6.70;99.90
59857;DHT22;45733;52.668;6.860;2023-04-15T06:30:20;6.80;99.90
59857;DHT22;45733;52.668;6.860;2023-04-15T06:32:46;7.00;99.90
59857;DHT22;45733;52.668;6.860;2023-04-15T06:35:12;7.00;99.90
59857;DHT22;45733;52.668;6.860;2023-04-15T06:37:38;7.10;99.90
59857;DHT22;45733;52.668;6.860;2023-04-15T06:40:04;7.20;99.90
59857;DHT22;45733;52.668;6.860;2023-04-15T06:42:30;7.20;99.90
59857;DHT22;45733;52.668;6.860;2023-04-15T06:44:55;7.30;99.90
59857;DHT22;45733;52.668;6.860;2023-04-15T06:47:21;7.30;99.90
59857;DHT22;45733;52.668;6.860;2023-04-15T06:49:47;7.40;99.90
59857;DHT22;45733;52.668;6.860;2023-04-15T06:52:12;7.50;99.90
59857;DHT22;45733;52.668;6.860;2023-04-15T06:54:38;7.50;99.90
59857;DHT22;45733;52.668;6.860;2023-04-15T06:57:04;7.60;99.90
59857;DHT22;45733;52.668;6.860;2023-04-15T06:59:30;7.80;99.90
59857;DHT22;45733;52.668;6.860;2023-04-15T07:01:56;7.80;99.90
59857;DHT22;45733;52.668;6.860;2023-04-15T07:04:21;7.90;99.90
59857;DHT22;45733;52.668;6.860;2023-04-15T07:06:47;7.90;99.90
59857;DHT22;45733;52.668;6.860;2023-04-15T07:09:12;8.00;99.90
59857;DHT22;45733;52.668;6.860;2023-04-15T07:11:38;8.10;99.90
59857;DHT22;45733;52.668;6.860;2023-04-15T07:14:04;8.10;99.90
59857;DHT22;45733;52.668;6.860;2023-04-15T07:16:29;8.20;99.90
59857;DHT22;45733;52.668;6.860;2023-04-15T07:18:55;8.20;99.90
59857;DHT22;45733;52.668;6.860;2023-04-15T07:21:21;8.20;99.90
59857;DHT22;45733;52.668;6.860;2023-04-15T07:23:47;8.30;99.90
59857;DHT22;45733;52.668;6.860;2023-04-15T07:26:12;8.30;99.90
59857;DHT22;45733;52.668;6.860;2023-04-15T07:28:38;8.30;99.90
59857;DHT22;45733;52.668;6.860;2023-04-15T07:31:03;8.30;99.90
59857;DHT22;45733;52.668;6.860;2023-04-15T07:33:29;8.40;99.90
59857;DHT22;45733;52.668;6.860;2023-04-15T07:35:55;8.50;99.90
59857;DHT22;45733;52.668;6.860;2023-04-15T07:38:20;8.50;99.90
59857;DHT22;45733;52.668;6.860;2023-04-15T07:40:46;8.60;99.90
59857;DHT22;45733;52.668;6.860;2023-04-15T07:43:12;8.60;99.90
59857;DHT22;45733;52.668;6.860;2023-04-15T07:45:38;8.90;99.90
59857;DHT22;45733;52.668;6.860;2023-04-15T07:48:04;8.90;99.90
59857;DHT22;45733;52.668;6.860;2023-04-15T07:50:31;9.00;99.90
59857;DHT22;45733;52.668;6.860;2023-04-15T07:52:56;9.10;99.90
59857;DHT22;45733;52.668;6.860;2023-04-15T07:55:22;9.00;99.90
59857;DHT22;45733;52.668;6.860;2023-04-15T07:57:48;9.00;99.90
59857;DHT22;45733;52.668;6.860;2023-04-15T08:00:14;9.30;99.90
59857;DHT22;45733;52.668;6.860;2023-04-15T08:02:40;9.40;99.90
59857;DHT22;45733;52.668;6.860;2023-04-15T08:05:07;9.50;99.90
59857;DHT22;45733;52.668;6.860;2023-04-15T08:07:33;9.60;99.90
59857;DHT22;45733;52.668;6.860;2023-04-15T08:09:59;9.70;99.90
59857;DHT22;45733;52.668;6.860;2023-04-15T08:12:24;9.70;99.90
59857;DHT22;45733;52.668;6.860;2023-04-15T08:14:50;9.90;99.90
59857;DHT22;45733;52.668;6.860;2023-04-15T08:17:16;9.90;99.90
59857;DHT22;45733;52.668;6.860;2023-04-15T08:19:42;10.00;99.90
59857;DHT22;45733;52.668;6.860;2023-04-15T08:22:07;9.80;99.90
59857;DHT22;45733;52.668;6.860;2023-04-15T08:24:33;9.90;99.90
59857;DHT22;45733;52.668;6.860;2023-04-15T08:26:59;10.10;99.90
59857;DHT22;45733;52.668;6.860;2023-04-15T08:29:24;10.10;99.90
59857;DHT22;45733;52.668;6.860;2023-04-15T08:31:50;10.10;99.90
59857;DHT22;45733;52.668;6.860;2023-04-15T08:34:15;10.10;99.90
59857;DHT22;45733;52.668;6.860;2023-04-15T08:36:42;10.10;99.90
59857;DHT22;45733;52.668;6.860;2023-04-15T08:39:07;10.40;99.90
59857;DHT22;45733;52.668;6.860;2023-04-15T08:41:38;10.20;99.90
59857;DHT22;45733;52.668;6.860;2023-04-15T08:44:04;10.40;99.90
59857;DHT22;45733;52.668;6.860;2023-04-15T08:46:30;10.20;99.90
59857;DHT22;45733;52.668;6.860;2023-04-15T08:48:57;10.40;99.90
59857;DHT22;45733;52.668;6.860;2023-04-15T08:51:23;10.30;99.90
59857;DHT22;45733;52.668;6.860;2023-04-15T08:53:49;10.50;99.90
59857;DHT22;45733;52.668;6.860;2023-04-15T08:56:15;10.20;99.90
59857;DHT22;45733;52.668;6.860;2023-04-15T08:58:42;10.30;99.90
59857;DHT22;45733;52.668;6.860;2023-04-15T09:01:08;10.20;99.90
59857;DHT22;45733;52.668;6.860;2023-04-15T09:03:34;10.40;99.90
59857;DHT22;45733;52.668;6.860;2023-04-15T09:05:59;10.60;99.90
59857;DHT22;45733;52.668;6.860;2023-04-15T09:08:25;10.80;99.90
59857;DHT22;45733;52.668;6.860;2023-04-15T09:10:52;10.90;99.90
59857;DHT22;45733;52.668;6.860;2023-04-15T09:13:18;10.70;99.90
59857;DHT22;45733;52.668;6.860;2023-04-15T09:15:43;11.10;99.90
59857;DHT22;45733;52.668;6.860;2023-04-15T09:18:10;10.90;99.90
59857;DHT22;45733;52.668;6.860;2023-04-15T09:20:39;10.90;99.90
59857;DHT22;45733;52.668;6.860;2023-04-15T09:23:12;10.80;99.90
59857;DHT22;45733;52.668;6.860;2023-04-15T09:25:38;10.80;99.90
59857;DHT22;45733;52.668;6.860;2023-04-15T09:28:04;10.50;99.90
59857;DHT22;45733;52.668;6.860;2023-04-15T09:30:30;10.80;99.90
59857;DHT22;45733;52.668;6.860;2023-04-15T09:32:56;10.90;99.90
59857;DHT22;45733;52.668;6.860;2023-04-15T09:35:23;10.70;99.90
59857;DHT22;45733;52.668;6.860;2023-04-15T09:37:49;10.70;99.90
59857;DHT22;45733;52.668;6.860;2023-04-15T09:40:29;10.70;99.90
59857;DHT22;45733;52.668;6.860;2023-04-15T09:42:55;10.80;99.90
59857;DHT22;45733;52.668;6.860;2023-04-15T09:45:21;10.80;99.90
59857;DHT22;45733;52.668;6.860;2023-04-15T09:47:47;10.80;99.90
59857;DHT22;45733;52.668;6.860;2023-04-15T09:50:15;10.70;99.90
59857;DHT22;45733;52.668;6.860;2023-04-15T09:52:41;10.60;99.90
59857;DHT22;45733;52.668;6.860;2023-04-15T09:55:07;10.40;99.90
59857;DHT22;45733;52.668;6.860;2023-04-15T09:57:36;10.40;99.90
59857;DHT22;45733;52.668;6.860;2023-04-15T10:00:03;10.60;99.90
59857;DHT22;45733;52.668;6.860;2023-04-15T10:02:29;10.90;99.90
59857;DHT22;45733;52.668;6.860;2023-04-15T10:04:55;11.20;99.90
59857;DHT22;45733;52.668;6.860;2023-04-15T10:07:21;11.00;99.90
59857;DHT22;45733;52.668;6.860;2023-04-15T10:09:49;10.90;99.90
59857;DHT22;45733;52.668;6.860;2023-04-15T10:12:16;10.90;99.90
59857;DHT22;45733;52.668;6.860;2023-04-15T10:14:42;10.60;99.90
59857;DHT22;45733;52.668;6.860;2023-04-15T10:17:10;10.40;99.90
59857;DHT22;45733;52.668;6.860;2023-04-15T10:19:36;10.30;99.90
59857;DHT22;45733;52.668;6.860;2023-04-15T10:22:02;10.50;99.90
59857;DHT22;45733;52.668;6.860;2023-04-15T10:24:28;10.70;99.90
59857;DHT22;45733;52.668;6.860;2023-04-15T10:26:55;10.60;99.90
59857;DHT22;45733;52.668;6.860;2023-04-15T10:29:22;10.50;99.90
59857;DHT22;45733;52.668;6.860;2023-04-15T10:31:48;10.70;99.90
59857;DHT22;45733;52.668;6.860;2023-04-15T10:34:13;10.50;99.90
59857;DHT22;45733;52.668;6.860;2023-04-15T10:36:40;10.60;99.90
59857;DHT22;45733;52.668;6.860;2023-04-15T10:42:05;10.50;99.90
59857;DHT22;45733;52.668;6.860;2023-04-15T10:44:31;10.70;99.90
59857;DHT22;45733;52.668;6.860;2023-04-15T10:46:57;10.80;99.90
59857;DHT22;45733;52.668;6.860;2023-04-15T10:49:25;11.10;99.90
59857;DHT22;45733;52.668;6.860;2023-04-15T10:51:57;11.20;99.90
59857;DHT22;45733;52.668;6.860;2023-04-15T10:59:37;11.10;99.90
59857;DHT22;45733;52.668;6.860;2023-04-15T11:02:03;11.10;99.90
59857;DHT22;45733;52.668;6.860;2023-04-15T11:07:14;11.00;99.90
59857;DHT22;45733;52.668;6.860;2023-04-15T11:09:40;11.00;99.90
59857;DHT22;45733;52.668;6.860;2023-04-15T11:14:33;10.90;99.90
59857;DHT22;45733;52.668;6.860;2023-04-15T11:17:00;10.80;99.90
59857;DHT22;45733;52.668;6.860;2023-04-15T11:19:26;10.80;99.90
59857;DHT22;45733;52.668;6.860;2023-04-15T11:21:51;10.70;99.90
59857;DHT22;45733;52.668;6.860;2023-04-15T11:24:23;10.60;99.90
59857;DHT22;45733;52.668;6.860;2023-04-15T11:26:58;10.60;99.90
59857;DHT22;45733;52.668;6.860;2023-04-15T11:29:29;10.40;99.90
59857;DHT22;45733;52.668;6.860;2023-04-15T11:32:05;10.30;99.90
59857;DHT22;45733;52.668;6.860;2023-04-15T11:34:33;10.50;99.90
59857;DHT22;45733;52.668;6.860;2023-04-15T11:37:02;10.70;99.90
59857;DHT22;45733;52.668;6.860;2023-04-15T11:39:28;10.70;99.90
59857;DHT22;45733;52.668;6.860;2023-04-15T11:41:53;10.90;99.90
59857;DHT22;45733;52.668;6.860;2023-04-15T11:44:19;10.90;99.90
59857;DHT22;45733;52.668;6.860;2023-04-15T11:46:44;10.90;99.90
59857;DHT22;45733;52.668;6.860;2023-04-15T11:49:10;10.70;99.90
59857;DHT22;45733;52.668;6.860;2023-04-15T11:51:36;10.90;99.90
59857;DHT22;45733;52.668;6.860;2023-04-15T11:54:01;10.90;99.90
59857;DHT22;45733;52.668;6.860;2023-04-15T11:56:33;11.10;99.90
59857;DHT22;45733;52.668;6.860;2023-04-15T11:58:59;11.20;99.90
59857;DHT22;45733;52.668;6.860;2023-04-15T12:01:34;11.10;99.90
59857;DHT22;45733;52.668;6.860;2023-04-15T12:04:00;11.10;99.90
59857;DHT22;45733;52.668;6.860;2023-04-15T12:06:33;11.30;99.90
59857;DHT22;45733;52.668;6.860;2023-04-15T12:09:06;11.30;99.90
59857;DHT22;45733;52.668;6.860;2023-04-15T12:11:33;11.20;99.90
59857;DHT22;45733;52.668;6.860;2023-04-15T12:14:03;11.40;99.90
59857;DHT22;45733;52.668;6.860;2023-04-15T12:16:29;11.30;99.90
59857;DHT22;45733;52.668;6.860;2023-04-15T12:18:56;11.20;99.90
59857;DHT22;45733;52.668;6.860;2023-04-15T12:21:27;11.20;99.90
59857;DHT22;45733;52.668;6.860;2023-04-15T12:23:54;11.10;99.90
59857;DHT22;45733;52.668;6.860;2023-04-15T12:26:28;11.10;99.90
59857;DHT22;45733;52.668;6.860;2023-04-15T12:29:15;11.20;99.90
59857;DHT22;45733;52.668;6.860;2023-04-15T12:34:51;10.90;99.90
59857;DHT22;45733;52.668;6.860;2023-04-15T12:37:17;11.20;99.90
59857;DHT22;45733;52.668;6.860;2023-04-15T12:39:43;11.40;99.90
59857;DHT22;45733;52.668;6.860;2023-04-15T12:42:09;11.40;99.90
59857;DHT22;45733;52.668;6.860;2023-04-15T12:44:35;11.30;99.90
59857;DHT22;45733;52.668;6.860;2023-04-15T12:47:01;10.80;99.90
59857;DHT22;45733;52.668;6.860;2023-04-15T12:49:27;10.70;99.90
59857;DHT22;45733;52.668;6.860;2023-04-15T12:51:54;10.40;99.90
59857;DHT22;45733;52.668;6.860;2023-04-15T12:54:20;10.30;99.90
59857;DHT22;45733;52.668;6.860;2023-04-15T12:56:46;10.40;99.90
59857;DHT22;45733;52.668;6.860;2023-04-15T12:59:13;10.50;99.90
59857;DHT22;45733;52.668;6.860;2023-04-15T13:01:38;10.70;99.90
59857;DHT22;45733;52.668;6.860;2023-04-15T13:04:04;10.80;99.90
59857;DHT22;45733;52.668;6.860;2023-04-15T13:06:30;10.70;99.90
59857;DHT22;45733;52.668;6.860;2023-04-15T13:08:58;10.40;99.90
59857;DHT22;45733;52.668;6.860;2023-04-15T13:11:23;10.50;99.90
59857;DHT22;45733;52.668;6.860;2023-04-15T13:13:49;10.40;99.90
59857;DHT22;45733;52.668;6.860;2023-04-15T13:16:17;10.40;99.90
59857;DHT22;45733;52.668;6.860;2023-04-15T13:18:42;10.50;99.90
59857;DHT22;45733;52.668;6.860;2023-04-15T13:21:08;10.30;99.90
59857;DHT22;45733;52.668;6.860;2023-04-15T13:23:35;10.30;99.90
59857;DHT22;45733;52.668;6.860;2023-04-15T13:26:00;10.40;99.90
59857;DHT22;45733;52.668;6.860;2023-04-15T13:28:26;10.20;99.90
59857;DHT22;45733;52.668;6.860;2023-04-15T13:30:51;10.20;99.90
59857;DHT22;45733;52.668;6.860;2023-04-15T13:33:17;10.20;99.90
59857;DHT22;45733;52.668;6.860;2023-04-15T13:35:42;10.20;99.90
59857;DHT22;45733;52.668;6.860;2023-04-15T13:38:08;10.10;99.90
59857;DHT22;45733;52.668;6.860;2023-04-15T13:40:34;10.10;99.90
59857;DHT22;45733;52.668;6.860;2023-04-15T13:42:59;10.00;99.90
59857;DHT22;45733;52.668;6.860;2023-04-15T13:45:25;10.10;99.90
59857;DHT22;45733;52.668;6.860;2023-04-15T13:47:51;9.90;99.90
59857;DHT22;45733;52.668;6.860;2023-04-15T13:50:16;9.90;99.90
59857;DHT22;45733;52.668;6.860;2023-04-15T13:52:42;9.90;99.90
59857;DHT22;45733;52.668;6.860;2023-04-15T13:55:07;10.10;99.90
59857;DHT22;45733;52.668;6.860;2023-04-15T13:57:33;10.10;99.90
59857;DHT22;45733;52.668;6.860;2023-04-15T13:59:59;10.20;99.90
59857;DHT22;45733;52.668;6.860;2023-04-15T14:02:24;10.20;99.90
59857;DHT22;45733;52.668;6.860;2023-04-15T14:04:50;10.30;99.90
59857;DHT22;45733;52.668;6.860;2023-04-15T14:07:16;10.10;99.90
59857;DHT22;45733;52.668;6.860;2023-04-15T14:09:42;10.00;99.90
59857;DHT22;45733;52.668;6.860;2023-04-15T14:12:07;10.10;99.90
59857;DHT22;45733;52.668;6.860;2023-04-15T14:14:34;10.10;99.90
59857;DHT22;45733;52.668;6.860;2023-04-15T14:16:59;10.10;99.90
59857;DHT22;45733;52.668;6.860;2023-04-15T14:19:25;10.00;99.90
59857;DHT22;45733;52.668;6.860;2023-04-15T14:21:50;9.90;99.90
59857;DHT22;45733;52.668;6.860;2023-04-15T14:24:16;9.90;99.90
59857;DHT22;45733;52.668;6.860;2023-04-15T14:26:45;9.80;99.90
59857;DHT22;45733;52.668;6.860;2023-04-15T14:29:10;9.70;99.90
59857;DHT22;45733;52.668;6.860;2023-04-15T14:31:36;9.60;99.90
59857;DHT22;45733;52.668;6.860;2023-04-15T14:34:02;9.70;99.90
59857;DHT22;45733;52.668;6.860;2023-04-15T14:36:27;9.60;99.90
59857;DHT22;45733;52.668;6.860;2023-04-15T14:38:53;9.60;99.90
59857;DHT22;45733;52.668;6.860;2023-04-15T14:41:18;9.50;99.90
59857;DHT22;45733;52.668;6.860;2023-04-15T14:43:45;9.60;99.90
59857;DHT22;45733;52.668;6.860;2023-04-15T14:46:10;9.60;99.90
59857;DHT22;45733;52.668;6.860;2023-04-15T14:48:36;9.40;99.90
59857;DHT22;45733;52.668;6.860;2023-04-15T14:51:01;9.50;99.90
59857;DHT22;45733;52.668;6.860;2023-04-15T14:53:27;9.40;99.90
59857;DHT22;45733;52.668;6.860;2023-04-15T14:55:53;9.40;99.90
59857;DHT22;45733;52.668;6.860;2023-04-15T14:58:18;9.40;99.90
59857;DHT22;45733;52.668;6.860;2023-04-15T15:00:44;9.30;99.90
59857;DHT22;45733;52.668;6.860;2023-04-15T15:03:10;9.40;99.90
59857;DHT22;45733;52.668;6.860;2023-04-15T15:05:39;9.30;99.90
59857;DHT22;45733;52.668;6.860;2023-04-15T15:08:05;9.20;99.90
59857;DHT22;45733;52.668;6.860;2023-04-15T15:10:32;9.30;99.90
59857;DHT22;45733;52.668;6.860;2023-04-15T15:12:58;9.30;99.90
59857;DHT22;45733;52.668;6.860;2023-04-15T15:15:23;9.20;99.90
59857;DHT22;45733;52.668;6.860;2023-04-15T15:17:49;9.20;99.90
59857;DHT22;45733;52.668;6.860;2023-04-15T15:20:15;9.10;99.90
59857;DHT22;45733;52.668;6.860;2023-04-15T15:22:41;9.20;99.90
59857;DHT22;45733;52.668;6.860;2023-04-15T15:25:06;9.20;99.90
59857;DHT22;45733;52.668;6.860;2023-04-15T15:27:32;9.20;99.90
59857;DHT22;45733;52.668;6.860;2023-04-15T15:29:58;9.10;99.90
59857;DHT22;45733;52.668;6.860;2023-04-15T15:32:23;9.20;99.90
59857;DHT22;45733;52.668;6.860;2023-04-15T15:34:49;9.20;99.90
59857;DHT22;45733;52.668;6.860;2023-04-15T15:37:14;9.10;99.90
59857;DHT22;45733;52.668;6.860;2023-04-15T15:39:40;9.10;99.90
59857;DHT22;45733;52.668;6.860;2023-04-15T15:42:05;9.10;99.90
59857;DHT22;45733;52.668;6.860;2023-04-15T15:44:31;9.10;99.90
59857;DHT22;45733;52.668;6.860;2023-04-15T15:46:58;9.10;99.90
59857;DHT22;45733;52.668;6.860;2023-04-15T15:49:23;9.10;99.90